Terminal Aerodrome Forecast
Issued by NWS

Home | Current Version | Previous Version | Text Only | Print | Product List | Glossary On
Versions: 1 2 3 4 5 6 7 8 9 10 11 12
412
FTUS45 KPIH 242320
TAFSUN
TAF
KSUN 242320Z 2500/2524 21010G20KT P6SM SKC
      TEMPO 2500/2503 30010G20KT
     FM250300 32012KT P6SM SKC
     FM251300 32008KT P6SM SCT040
     FM251900 15008KT P6SM VCSH SCT040 BKN060
      AMD LTD TO CLD VIS AND WIND 2505/2513=

USA.gov is the U.S. government's official web portal to all federal, state and local government web resources and services.